createdAt,value
2022-09-13T00:00:38.756Z,2.5
2022-09-13T00:05:40.973Z,2.7
2022-09-13T00:10:43.422Z,2.4
2022-09-13T00:15:45.462Z,2.3
2022-09-13T00:20:47.690Z,3.7
2022-09-13T00:25:50.133Z,3.2
2022-09-13T00:30:52.072Z,3
2022-09-13T00:35:54.240Z,4
2022-09-13T00:40:55.045Z,2.7
2022-09-13T00:45:57.005Z,3.2
2022-09-13T00:50:59.224Z,3.4
2022-09-13T00:56:01.143Z,4
2022-09-13T01:01:03.325Z,2.9
2022-09-13T01:06:05.693Z,6
2022-09-13T01:11:06.184Z,3.1
2022-09-13T01:16:08.120Z,3.7
2022-09-13T01:21:10.544Z,5.1
2022-09-13T01:26:12.690Z,3.1
2022-09-13T01:31:14.684Z,3.6
2022-09-13T01:36:17.042Z,3.6
2022-09-13T01:41:18.977Z,3.3
2022-09-13T01:46:21.017Z,4.5
2022-09-13T01:51:23.957Z,3.8
2022-09-13T01:56:26.929Z,5.7
2022-09-13T02:01:28.911Z,2.7
2022-09-13T02:06:31.382Z,3.5
2022-09-13T02:11:33.383Z,4.3
2022-09-13T02:16:35.332Z,3.3
2022-09-13T02:21:37.504Z,3.4
2022-09-13T02:26:39.561Z,2.8
2022-09-13T02:31:41.819Z,3.9
2022-09-13T02:36:44.504Z,3.6
2022-09-13T02:41:46.648Z,2.9
2022-09-13T02:46:48.667Z,4
2022-09-13T02:51:50.536Z,2.7
2022-09-13T02:56:52.465Z,4
2022-09-13T03:01:54.517Z,3.8
2022-09-13T03:06:56.583Z,6.4
2022-09-13T03:11:58.801Z,6.8
2022-09-13T03:17:00.753Z,5.8
2022-09-13T03:22:03.079Z,9.1
2022-09-13T03:27:05.039Z,5.4
2022-09-13T03:32:06.885Z,5.6
2022-09-13T03:37:09.382Z,6.3
2022-09-13T03:42:11.368Z,5.6
2022-09-13T03:47:13.333Z,3.8
2022-09-13T03:52:15.399Z,7.3
2022-09-13T03:57:17.454Z,5.7
2022-09-13T04:02:19.570Z,6.4
2022-09-13T04:07:21.873Z,7.1
2022-09-13T04:12:24.063Z,5.6
2022-09-13T04:17:26.674Z,4.7
2022-09-13T04:22:28.757Z,6.1
2022-09-13T04:27:30.749Z,13.5
2022-09-13T04:32:33.289Z,9.3
2022-09-13T04:37:35.358Z,6
2022-09-13T04:42:37.331Z,15.2
2022-09-13T04:47:39.253Z,11.1
2022-09-13T04:52:41.134Z,12.5
2022-09-13T04:57:43.089Z,8.3
2022-09-13T05:02:45.040Z,6.2
2022-09-13T05:07:47.191Z,4.1
2022-09-13T05:12:49.270Z,8.3
2022-09-13T05:17:51.412Z,6.4
2022-09-13T05:22:53.548Z,5.9
2022-09-13T05:27:55.511Z,6.2
2022-09-13T05:32:57.480Z,8.8
2022-09-13T05:37:59.445Z,10.7
2022-09-13T05:43:01.506Z,21.6
2022-09-13T05:48:03.719Z,22.3
2022-09-13T05:53:05.898Z,15.1
2022-09-13T05:58:07.955Z,28.9
2022-09-13T06:03:08.361Z,9
2022-09-13T06:08:10.506Z,16.9
2022-09-13T06:13:12.628Z,9
2022-09-13T06:18:15.001Z,8
2022-09-13T06:23:17.246Z,9
2022-09-13T06:28:21.188Z,10.2
2022-09-13T06:33:23.553Z,8
2022-09-13T06:38:25.765Z,4.8
2022-09-13T06:43:27.807Z,8
2022-09-13T06:48:30.250Z,10.9
2022-09-13T06:53:30.670Z,12.6
2022-09-13T06:58:32.750Z,7
2022-09-13T07:03:34.845Z,7.2
2022-09-13T07:08:36.915Z,7.3
2022-09-13T07:13:39.573Z,5
2022-09-13T07:18:41.644Z,3.4
2022-09-13T07:23:43.878Z,3.3
2022-09-13T07:28:46.687Z,3.6
2022-09-13T07:33:49.325Z,3.8
2022-09-13T07:38:51.843Z,2.3
2022-09-13T07:43:54.176Z,3.9
2022-09-13T07:48:56.286Z,3.2
2022-09-13T07:53:58.944Z,1.6
2022-09-13T07:59:01.084Z,2.1
2022-09-13T08:04:03.288Z,1.7
2022-09-13T08:09:05.419Z,2.7
2022-09-13T08:14:11.506Z,2.2
2022-09-13T08:19:13.616Z,3.6
2022-09-13T08:24:16.696Z,2.7
2022-09-13T08:29:18.446Z,3.9
2022-09-13T08:34:20.740Z,3.3
2022-09-13T08:39:22.990Z,4.3
2022-09-13T08:44:25.043Z,1.3
2022-09-13T08:49:27.210Z,5.3
2022-09-13T08:54:29.536Z,2.7
2022-09-13T08:59:31.651Z,2.9
2022-09-13T09:04:33.892Z,3.9
2022-09-13T09:09:36.065Z,5
2022-09-13T09:14:38.504Z,2.3
2022-09-13T09:19:40.598Z,1.6
2022-09-13T09:24:42.798Z,2.2
2022-09-13T09:29:44.859Z,4.7
2022-09-13T09:34:46.807Z,2
2022-09-13T09:39:48.853Z,1.1
2022-09-13T09:44:51.032Z,3.8
2022-09-13T09:49:53.066Z,3.5
2022-09-13T09:54:54.969Z,3.2
2022-09-13T09:59:56.915Z,4.5
2022-09-13T10:04:58.896Z,3.9
2022-09-13T10:10:00.890Z,2.2
2022-09-13T10:15:02.926Z,1.3
2022-09-13T10:20:10.640Z,2.9
2022-09-13T10:25:12.726Z,2.8
2022-09-13T10:30:13.922Z,2.5
2022-09-13T10:35:16.357Z,3.4
2022-09-13T10:40:18.356Z,1.5
2022-09-13T10:45:20.663Z,1.6
2022-09-13T10:50:22.588Z,3.7
2022-09-13T10:55:24.759Z,2.6
2022-09-13T11:00:26.890Z,2.4
2022-09-13T11:05:28.900Z,6.1
2022-09-13T11:10:30.918Z,3
2022-09-13T11:15:32.951Z,3.8
2022-09-13T11:20:34.896Z,4
2022-09-13T11:25:37.068Z,4.4
2022-09-13T11:30:39.123Z,1.9
2022-09-13T11:35:41.263Z,7.4
2022-09-13T11:40:43.624Z,2.7
2022-09-13T11:45:46.062Z,4.4
2022-09-13T11:50:48.189Z,4.4
2022-09-13T11:55:50.195Z,2.2
2022-09-13T12:00:52.287Z,2.6
2022-09-13T12:05:54.319Z,4.2
2022-09-13T12:10:56.566Z,3
2022-09-13T12:15:58.917Z,2.7
2022-09-13T12:21:00.882Z,2.3
2022-09-13T12:26:02.878Z,1.5
2022-09-13T12:31:05.129Z,2.5
2022-09-13T12:36:07.171Z,4.8
2022-09-13T12:41:09.439Z,2.9
2022-09-13T12:46:11.694Z,1.6
2022-09-13T12:51:13.987Z,2.8
2022-09-13T12:56:16.402Z,2.4
2022-09-13T13:01:18.948Z,2.9
2022-09-13T13:06:22.085Z,3.6
2022-09-13T13:11:25.119Z,5.2
2022-09-13T13:16:28.766Z,3.9
2022-09-13T13:21:33.109Z,4.8
2022-09-13T13:26:35.322Z,3.7
2022-09-13T13:31:37.380Z,3.4
2022-09-13T13:36:39.796Z,5.7
2022-09-13T13:41:41.968Z,4.2
2022-09-13T13:46:44.214Z,3.4
2022-09-13T13:51:46.469Z,10
2022-09-13T13:56:48.772Z,8.2
2022-09-13T14:01:50.887Z,4.3
2022-09-13T14:06:53.057Z,7.4
2022-09-13T14:11:55.088Z,2.1
2022-09-13T14:16:57.250Z,5.4
2022-09-13T14:21:59.649Z,2.4
2022-09-13T14:27:04.003Z,5.3
2022-09-13T14:32:11.306Z,1.8
2022-09-13T14:37:13.366Z,3.7
2022-09-13T14:42:15.372Z,3.1
2022-09-13T14:47:17.590Z,3.2
2022-09-13T14:52:19.636Z,2.6
2022-09-13T14:57:21.736Z,4.9
2022-09-13T15:02:23.760Z,2.8
2022-09-13T15:07:25.866Z,5.2
2022-09-13T15:12:27.984Z,7
2022-09-13T15:17:28.510Z,5.9
2022-09-13T15:22:31.725Z,3.8
2022-09-13T15:27:33.934Z,2.4
2022-09-13T15:32:35.957Z,4.3
2022-09-13T15:37:39.095Z,2.7
2022-09-13T15:42:41.753Z,6.6
2022-09-13T15:47:43.857Z,3.4
2022-09-13T15:52:46.007Z,4.2
2022-09-13T15:57:47.994Z,7.4
2022-09-13T16:02:50.086Z,2.9
2022-09-13T16:07:52.069Z,2.5
2022-09-13T16:12:54.075Z,3.2
2022-09-13T16:17:56.235Z,3.8
2022-09-13T16:22:58.623Z,1.6
2022-09-13T16:28:00.663Z,2.9
2022-09-13T16:33:02.866Z,2.3
2022-09-13T16:38:05.594Z,2.5
2022-09-13T16:43:07.542Z,4.7
2022-09-13T16:48:09.531Z,3.1
2022-09-13T16:53:11.596Z,2.7
2022-09-13T16:58:14.022Z,3.9
2022-09-13T17:03:16.102Z,4.9
2022-09-13T17:08:18.480Z,4.5
2022-09-13T17:13:20.620Z,3.9
2022-09-13T17:18:22.940Z,7.2
2022-09-13T17:23:24.996Z,3.6
2022-09-13T17:28:27.541Z,4.4
2022-09-13T17:33:29.568Z,5.7
2022-09-13T17:38:31.653Z,3.7
2022-09-13T17:43:33.859Z,3.3
2022-09-13T17:48:35.893Z,4.2
2022-09-13T17:53:38.059Z,3.7
2022-09-13T17:58:42.575Z,4.7
2022-09-13T18:03:44.984Z,4.9
2022-09-13T18:08:47.528Z,7.8
2022-09-13T18:13:49.697Z,7.6
2022-09-13T18:18:52.190Z,9
2022-09-13T18:23:55.381Z,9.1
2022-09-13T18:28:58.246Z,7.6
2022-09-13T18:34:00.297Z,8.9
2022-09-13T18:39:02.199Z,7.2
2022-09-13T18:44:04.778Z,9.3
2022-09-13T18:49:09.878Z,8.8
2022-09-13T18:54:11.996Z,9.6
2022-09-13T18:59:14.497Z,9.9
2022-09-13T19:04:16.786Z,10.5
2022-09-13T19:09:18.877Z,9
2022-09-13T19:14:22.098Z,8
2022-09-13T19:19:24.611Z,5.6
2022-09-13T19:24:27.266Z,4.7
2022-09-13T19:29:29.867Z,4
2022-09-13T19:34:31.844Z,4
2022-09-13T19:39:33.936Z,4.5
2022-09-13T19:44:36.070Z,2.9
2022-09-13T19:49:38.006Z,4.2
2022-09-13T19:54:39.979Z,4.1
2022-09-13T19:59:41.935Z,8.2
2022-09-13T20:04:43.969Z,3.5
2022-09-13T20:09:46.276Z,6.4
2022-09-13T20:14:48.544Z,4.4
2022-09-13T20:19:51.089Z,3.7
2022-09-13T20:24:53.134Z,7.8
2022-09-13T20:29:55.240Z,4.2
2022-09-13T20:34:57.293Z,4
2022-09-13T20:39:59.270Z,6.2
2022-09-13T20:45:01.963Z,7
2022-09-13T20:50:05.224Z,5.5
2022-09-13T20:55:07.432Z,4.8
2022-09-13T21:00:11.094Z,7.2
2022-09-13T21:05:13.188Z,6.5
2022-09-13T21:10:15.185Z,4.2
2022-09-13T21:15:17.167Z,4.4
2022-09-13T21:20:19.610Z,2.7
2022-09-13T21:25:21.699Z,6
2022-09-13T21:30:26.443Z,4.1
2022-09-13T21:35:29.050Z,3.7
2022-09-13T21:40:31.337Z,3.7
2022-09-13T21:45:33.915Z,3
2022-09-13T21:50:36.202Z,4.5
2022-09-13T21:55:39.133Z,4.6
2022-09-13T22:00:41.561Z,4.6
2022-09-13T22:05:43.687Z,4.8
2022-09-13T22:10:46.081Z,4.9
2022-09-13T22:15:47.987Z,5.1
2022-09-13T22:20:50.078Z,4.6
2022-09-13T22:25:51.944Z,5.2
2022-09-13T22:30:54.154Z,5.8
2022-09-13T22:35:54.887Z,3.5
2022-09-13T22:40:57.194Z,3.8
2022-09-13T22:45:59.416Z,4.2
2022-09-13T22:51:01.856Z,4
2022-09-13T22:56:03.952Z,3.9
2022-09-13T23:01:06.186Z,2.6
2022-09-13T23:06:08.499Z,3.1
2022-09-13T23:11:10.369Z,5.4
2022-09-13T23:16:12.579Z,3.2
2022-09-13T23:21:15.119Z,6.3
2022-09-13T23:26:15.486Z,3.4
2022-09-13T23:31:17.493Z,2.4
2022-09-13T23:36:20.391Z,3.2
2022-09-13T23:41:22.354Z,2.5
2022-09-13T23:46:24.553Z,3
2022-09-13T23:51:26.674Z,1.7
2022-09-13T23:56:28.733Z,2.1
